sensor_id;sensor_type;location;lat;lon;timestamp;temperature;humidity
10276;DHT22;5183;51.190;6.820;2023-02-12T00:01:48;7.70;99.90
10276;DHT22;5183;51.190;6.820;2023-02-12T00:04:14;7.70;99.90
10276;DHT22;5183;51.190;6.820;2023-02-12T00:06:42;7.70;99.90
10276;DHT22;5183;51.190;6.820;2023-02-12T00:09:11;7.70;99.90
10276;DHT22;5183;51.190;6.820;2023-02-12T00:11:39;7.70;99.90
10276;DHT22;5183;51.190;6.820;2023-02-12T00:14:07;7.70;99.90
10276;DHT22;5183;51.190;6.820;2023-02-12T00:16:34;7.60;99.90
10276;DHT22;5183;51.190;6.820;2023-02-12T00:19:00;7.70;99.90
10276;DHT22;5183;51.190;6.820;2023-02-12T00:21:27;7.70;99.90
10276;DHT22;5183;51.190;6.820;2023-02-12T00:23:55;7.70;99.90
10276;DHT22;5183;51.190;6.820;2023-02-12T00:26:23;7.70;99.90
10276;DHT22;5183;51.190;6.820;2023-02-12T00:28:54;7.60;99.90
10276;DHT22;5183;51.190;6.820;2023-02-12T00:31:23;7.70;99.90
10276;DHT22;5183;51.190;6.820;2023-02-12T00:33:50;7.70;99.90
10276;DHT22;5183;51.190;6.820;2023-02-12T00:36:19;7.60;99.90
10276;DHT22;5183;51.190;6.820;2023-02-12T00:38:47;7.60;99.90
10276;DHT22;5183;51.190;6.820;2023-02-12T00:41:16;7.70;99.90
10276;DHT22;5183;51.190;6.820;2023-02-12T00:43:43;7.60;99.90
10276;DHT22;5183;51.190;6.820;2023-02-12T00:46:11;7.60;99.90
10276;DHT22;5183;51.190;6.820;2023-02-12T00:48:38;7.60;99.90
10276;DHT22;5183;51.190;6.820;2023-02-12T00:51:05;7.60;99.90
10276;DHT22;5183;51.190;6.820;2023-02-12T00:53:33;7.60;99.90
10276;DHT22;5183;51.190;6.820;2023-02-12T00:56:00;7.60;99.90
10276;DHT22;5183;51.190;6.820;2023-02-12T00:58:27;7.60;99.90
10276;DHT22;5183;51.190;6.820;2023-02-12T01:00:54;7.60;99.90
10276;DHT22;5183;51.190;6.820;2023-02-12T01:03:24;7.60;99.90
10276;DHT22;5183;51.190;6.820;2023-02-12T01:05:50;7.60;99.90
10276;DHT22;5183;51.190;6.820;2023-02-12T01:08:18;7.60;99.90
10276;DHT22;5183;51.190;6.820;2023-02-12T01:10:54;7.60;99.90
10276;DHT22;5183;51.190;6.820;2023-02-12T01:13:22;7.60;99.90
10276;DHT22;5183;51.190;6.820;2023-02-12T01:16:00;7.60;99.90
10276;DHT22;5183;51.190;6.820;2023-02-12T01:18:28;7.60;99.90
10276;DHT22;5183;51.190;6.820;2023-02-12T01:20:55;7.60;99.90
10276;DHT22;5183;51.190;6.820;2023-02-12T01:23:23;7.60;99.90
10276;DHT22;5183;51.190;6.820;2023-02-12T01:25:50;7.60;99.90
10276;DHT22;5183;51.190;6.820;2023-02-12T01:28:17;7.60;99.90
10276;DHT22;5183;51.190;6.820;2023-02-12T01:30:44;7.60;99.90
10276;DHT22;5183;51.190;6.820;2023-02-12T01:33:10;7.50;99.90
10276;DHT22;5183;51.190;6.820;2023-02-12T01:35:38;7.50;99.90
10276;DHT22;5183;51.190;6.820;2023-02-12T01:38:05;7.60;99.90
10276;DHT22;5183;51.190;6.820;2023-02-12T01:40:32;7.50;99.90
10276;DHT22;5183;51.190;6.820;2023-02-12T01:43:00;7.50;99.90
10276;DHT22;5183;51.190;6.820;2023-02-12T01:45:51;7.50;99.90
10276;DHT22;5183;51.190;6.820;2023-02-12T01:48:22;7.50;99.90
10276;DHT22;5183;51.190;6.820;2023-02-12T01:50:53;7.50;99.90
10276;DHT22;5183;51.190;6.820;2023-02-12T01:53:24;7.50;99.90
10276;DHT22;5183;51.190;6.820;2023-02-12T01:55:56;7.50;99.90
10276;DHT22;5183;51.190;6.820;2023-02-12T01:58:25;7.50;99.90
10276;DHT22;5183;51.190;6.820;2023-02-12T02:00:52;7.50;99.90
10276;DHT22;5183;51.190;6.820;2023-02-12T02:03:20;7.50;99.90
10276;DHT22;5183;51.190;6.820;2023-02-12T02:05:55;7.40;99.90
10276;DHT22;5183;51.190;6.820;2023-02-12T02:08:24;7.40;99.90
10276;DHT22;5183;51.190;6.820;2023-02-12T02:10:51;7.40;99.90
10276;DHT22;5183;51.190;6.820;2023-02-12T02:13:18;7.40;99.90
10276;DHT22;5183;51.190;6.820;2023-02-12T02:16:08;7.40;99.90
10276;DHT22;5183;51.190;6.820;2023-02-12T02:18:42;7.40;99.90
10276;DHT22;5183;51.190;6.820;2023-02-12T02:24:36;7.40;99.90
10276;DHT22;5183;51.190;6.820;2023-02-12T02:27:15;7.40;99.90
10276;DHT22;5183;51.190;6.820;2023-02-12T02:33:08;7.40;99.90
10276;DHT22;5183;51.190;6.820;2023-02-12T02:35:40;7.40;99.90
10276;DHT22;5183;51.190;6.820;2023-02-12T02:38:20;7.40;99.90
10276;DHT22;5183;51.190;6.820;2023-02-12T02:40:52;7.40;99.90
10276;DHT22;5183;51.190;6.820;2023-02-12T02:43:25;7.40;99.90
10276;DHT22;5183;51.190;6.820;2023-02-12T02:45:57;7.40;99.90
10276;DHT22;5183;51.190;6.820;2023-02-12T02:48:32;7.40;99.90
10276;DHT22;5183;51.190;6.820;2023-02-12T02:51:02;7.40;99.90
10276;DHT22;5183;51.190;6.820;2023-02-12T02:53:32;7.40;99.90
10276;DHT22;5183;51.190;6.820;2023-02-12T02:56:04;7.40;99.90
10276;DHT22;5183;51.190;6.820;2023-02-12T02:58:35;7.40;99.90
10276;DHT22;5183;51.190;6.820;2023-02-12T03:01:06;7.40;99.90
10276;DHT22;5183;51.190;6.820;2023-02-12T03:03:39;7.40;99.90
10276;DHT22;5183;51.190;6.820;2023-02-12T03:06:12;7.40;99.90
10276;DHT22;5183;51.190;6.820;2023-02-12T03:08:41;7.40;99.90
10276;DHT22;5183;51.190;6.820;2023-02-12T03:11:15;7.30;99.90
10276;DHT22;5183;51.190;6.820;2023-02-12T03:13:46;7.30;99.90
10276;DHT22;5183;51.190;6.820;2023-02-12T03:16:17;7.40;99.90
10276;DHT22;5183;51.190;6.820;2023-02-12T03:18:50;7.40;99.90
10276;DHT22;5183;51.190;6.820;2023-02-12T03:21:23;7.40;99.90
10276;DHT22;5183;51.190;6.820;2023-02-12T03:23:56;7.40;99.90
10276;DHT22;5183;51.190;6.820;2023-02-12T03:26:28;7.30;99.90
10276;DHT22;5183;51.190;6.820;2023-02-12T03:28:56;7.40;99.90
10276;DHT22;5183;51.190;6.820;2023-02-12T03:31:32;7.40;99.90
10276;DHT22;5183;51.190;6.820;2023-02-12T03:34:06;7.40;99.90
10276;DHT22;5183;51.190;6.820;2023-02-12T03:36:40;7.30;99.90
10276;DHT22;5183;51.190;6.820;2023-02-12T03:39:12;7.30;99.90
10276;DHT22;5183;51.190;6.820;2023-02-12T03:41:46;7.30;99.90
10276;DHT22;5183;51.190;6.820;2023-02-12T03:44:22;7.30;99.90
10276;DHT22;5183;51.190;6.820;2023-02-12T03:46:56;7.30;99.90
10276;DHT22;5183;51.190;6.820;2023-02-12T03:49:27;7.30;99.90
10276;DHT22;5183;51.190;6.820;2023-02-12T03:51:54;7.30;99.90
10276;DHT22;5183;51.190;6.820;2023-02-12T03:54:23;7.30;99.90
10276;DHT22;5183;51.190;6.820;2023-02-12T03:56:53;7.30;99.90
10276;DHT22;5183;51.190;6.820;2023-02-12T03:59:23;7.30;99.90
10276;DHT22;5183;51.190;6.820;2023-02-12T04:01:52;7.30;99.90
10276;DHT22;5183;51.190;6.820;2023-02-12T04:04:19;7.40;99.90
10276;DHT22;5183;51.190;6.820;2023-02-12T04:06:48;7.30;99.90
10276;DHT22;5183;51.190;6.820;2023-02-12T04:09:16;7.30;99.90
10276;DHT22;5183;51.190;6.820;2023-02-12T04:11:57;7.30;99.90
10276;DHT22;5183;51.190;6.820;2023-02-12T04:14:30;7.30;99.90
10276;DHT22;5183;51.190;6.820;2023-02-12T04:17:03;7.30;99.90
10276;DHT22;5183;51.190;6.820;2023-02-12T04:19:37;7.30;99.90
10276;DHT22;5183;51.190;6.820;2023-02-12T04:22:23;7.30;99.90
10276;DHT22;5183;51.190;6.820;2023-02-12T04:25:02;7.30;99.90
10276;DHT22;5183;51.190;6.820;2023-02-12T04:27:39;7.20;99.90
10276;DHT22;5183;51.190;6.820;2023-02-12T04:30:16;7.20;99.90
10276;DHT22;5183;51.190;6.820;2023-02-12T04:32:47;7.20;99.90
10276;DHT22;5183;51.190;6.820;2023-02-12T04:35:20;7.20;99.90
10276;DHT22;5183;51.190;6.820;2023-02-12T04:37:56;7.20;99.90
10276;DHT22;5183;51.190;6.820;2023-02-12T04:40:25;7.20;99.90
10276;DHT22;5183;51.190;6.820;2023-02-12T04:42:52;7.20;99.90
10276;DHT22;5183;51.190;6.820;2023-02-12T04:45:23;7.10;99.90
10276;DHT22;5183;51.190;6.820;2023-02-12T04:47:50;7.20;99.90
10276;DHT22;5183;51.190;6.820;2023-02-12T04:50:18;7.10;99.90
10276;DHT22;5183;51.190;6.820;2023-02-12T04:52:45;7.20;99.90
10276;DHT22;5183;51.190;6.820;2023-02-12T04:55:14;7.20;99.90
10276;DHT22;5183;51.190;6.820;2023-02-12T04:57:40;7.10;99.90
10276;DHT22;5183;51.190;6.820;2023-02-12T05:00:10;7.10;99.90
10276;DHT22;5183;51.190;6.820;2023-02-12T05:02:37;7.10;99.90
10276;DHT22;5183;51.190;6.820;2023-02-12T05:05:05;7.10;99.90
10276;DHT22;5183;51.190;6.820;2023-02-12T05:07:31;7.10;99.90
10276;DHT22;5183;51.190;6.820;2023-02-12T05:09:58;7.10;99.90
10276;DHT22;5183;51.190;6.820;2023-02-12T05:12:26;7.20;99.90
10276;DHT22;5183;51.190;6.820;2023-02-12T05:14:53;7.10;99.90
10276;DHT22;5183;51.190;6.820;2023-02-12T05:17:21;7.10;99.90
10276;DHT22;5183;51.190;6.820;2023-02-12T05:19:48;7.20;99.90
10276;DHT22;5183;51.190;6.820;2023-02-12T05:22:14;7.20;99.90
10276;DHT22;5183;51.190;6.820;2023-02-12T05:24:41;7.20;99.90
10276;DHT22;5183;51.190;6.820;2023-02-12T05:27:08;7.10;99.90
10276;DHT22;5183;51.190;6.820;2023-02-12T05:29:36;7.20;99.90
10276;DHT22;5183;51.190;6.820;2023-02-12T05:32:04;7.20;99.90
10276;DHT22;5183;51.190;6.820;2023-02-12T05:34:31;7.20;99.90
10276;DHT22;5183;51.190;6.820;2023-02-12T05:36:58;7.20;99.90
10276;DHT22;5183;51.190;6.820;2023-02-12T05:39:25;7.20;99.90
10276;DHT22;5183;51.190;6.820;2023-02-12T05:41:51;7.20;99.90
10276;DHT22;5183;51.190;6.820;2023-02-12T05:44:18;7.20;99.90
10276;DHT22;5183;51.190;6.820;2023-02-12T05:46:46;7.10;99.90
10276;DHT22;5183;51.190;6.820;2023-02-12T05:49:13;7.10;99.90
10276;DHT22;5183;51.190;6.820;2023-02-12T05:51:41;7.10;99.90
10276;DHT22;5183;51.190;6.820;2023-02-12T05:54:08;7.10;99.90
10276;DHT22;5183;51.190;6.820;2023-02-12T05:56:37;7.10;99.90
10276;DHT22;5183;51.190;6.820;2023-02-12T05:59:12;7.10;99.90
10276;DHT22;5183;51.190;6.820;2023-02-12T06:01:41;7.00;99.90
10276;DHT22;5183;51.190;6.820;2023-02-12T06:04:13;7.10;99.90
10276;DHT22;5183;51.190;6.820;2023-02-12T06:06:40;7.10;99.90
10276;DHT22;5183;51.190;6.820;2023-02-12T06:09:08;7.00;99.90
10276;DHT22;5183;51.190;6.820;2023-02-12T06:11:35;7.10;99.90
10276;DHT22;5183;51.190;6.820;2023-02-12T06:14:02;7.00;99.90
10276;DHT22;5183;51.190;6.820;2023-02-12T06:16:29;7.00;99.90
10276;DHT22;5183;51.190;6.820;2023-02-12T06:18:57;7.00;99.90
10276;DHT22;5183;51.190;6.820;2023-02-12T06:21:27;7.00;99.90
10276;DHT22;5183;51.190;6.820;2023-02-12T06:23:54;7.00;99.90
10276;DHT22;5183;51.190;6.820;2023-02-12T06:26:22;7.00;99.90
10276;DHT22;5183;51.190;6.820;2023-02-12T06:28:49;7.00;99.90
10276;DHT22;5183;51.190;6.820;2023-02-12T06:31:18;7.00;99.90
10276;DHT22;5183;51.190;6.820;2023-02-12T06:33:45;7.00;99.90
10276;DHT22;5183;51.190;6.820;2023-02-12T06:36:12;7.00;99.90
10276;DHT22;5183;51.190;6.820;2023-02-12T06:38:40;7.00;99.90
10276;DHT22;5183;51.190;6.820;2023-02-12T06:41:07;7.00;99.90
10276;DHT22;5183;51.190;6.820;2023-02-12T06:43:34;7.10;99.90
10276;DHT22;5183;51.190;6.820;2023-02-12T06:46:02;7.00;99.90
10276;DHT22;5183;51.190;6.820;2023-02-12T06:48:29;7.00;99.90
10276;DHT22;5183;51.190;6.820;2023-02-12T06:51:03;7.00;99.90
10276;DHT22;5183;51.190;6.820;2023-02-12T06:53:31;7.00;99.90
10276;DHT22;5183;51.190;6.820;2023-02-12T06:56:01;7.00;99.90
10276;DHT22;5183;51.190;6.820;2023-02-12T06:58:28;7.00;99.90
10276;DHT22;5183;51.190;6.820;2023-02-12T07:00:55;7.00;99.90
10276;DHT22;5183;51.190;6.820;2023-02-12T07:03:22;7.00;99.90
10276;DHT22;5183;51.190;6.820;2023-02-12T07:05:49;7.10;99.90
10276;DHT22;5183;51.190;6.820;2023-02-12T07:08:15;7.00;99.90
10276;DHT22;5183;51.190;6.820;2023-02-12T07:10:42;7.10;99.90
10276;DHT22;5183;51.190;6.820;2023-02-12T07:13:14;7.10;99.90
10276;DHT22;5183;51.190;6.820;2023-02-12T07:15:41;7.10;99.90
10276;DHT22;5183;51.190;6.820;2023-02-12T07:18:08;7.10;99.90
10276;DHT22;5183;51.190;6.820;2023-02-12T07:20:35;7.10;99.90
10276;DHT22;5183;51.190;6.820;2023-02-12T07:23:02;7.10;99.90
10276;DHT22;5183;51.190;6.820;2023-02-12T07:25:28;7.10;99.90
10276;DHT22;5183;51.190;6.820;2023-02-12T07:27:55;7.20;99.90
10276;DHT22;5183;51.190;6.820;2023-02-12T07:30:23;7.20;99.90
10276;DHT22;5183;51.190;6.820;2023-02-12T07:32:50;7.20;99.90
10276;DHT22;5183;51.190;6.820;2023-02-12T07:35:17;7.20;99.90
10276;DHT22;5183;51.190;6.820;2023-02-12T07:37:44;7.30;99.90
10276;DHT22;5183;51.190;6.820;2023-02-12T07:40:11;7.30;99.90
10276;DHT22;5183;51.190;6.820;2023-02-12T07:42:38;7.40;99.90
10276;DHT22;5183;51.190;6.820;2023-02-12T07:45:05;7.40;99.90
10276;DHT22;5183;51.190;6.820;2023-02-12T07:47:34;7.40;99.90
10276;DHT22;5183;51.190;6.820;2023-02-12T07:50:04;7.50;99.90
10276;DHT22;5183;51.190;6.820;2023-02-12T07:52:31;7.50;99.90
10276;DHT22;5183;51.190;6.820;2023-02-12T07:54:58;7.60;99.90
10276;DHT22;5183;51.190;6.820;2023-02-12T07:57:25;7.60;99.90
10276;DHT22;5183;51.190;6.820;2023-02-12T07:59:52;7.70;99.90
10276;DHT22;5183;51.190;6.820;2023-02-12T08:02:19;7.70;99.90
10276;DHT22;5183;51.190;6.820;2023-02-12T08:04:47;7.70;99.90
10276;DHT22;5183;51.190;6.820;2023-02-12T08:07:14;7.80;99.90
10276;DHT22;5183;51.190;6.820;2023-02-12T08:09:41;7.80;90.80
10276;DHT22;5183;51.190;6.820;2023-02-12T08:12:08;7.80;88.30
10276;DHT22;5183;51.190;6.820;2023-02-12T08:14:35;7.90;83.50
10276;DHT22;5183;51.190;6.820;2023-02-12T08:17:02;7.90;71.70
10276;DHT22;5183;51.190;6.820;2023-02-12T08:19:29;8.00;49.40
10276;DHT22;5183;51.190;6.820;2023-02-12T08:21:57;8.00;32.60
10276;DHT22;5183;51.190;6.820;2023-02-12T08:24:26;8.10;39.80
10276;DHT22;5183;51.190;6.820;2023-02-12T08:26:53;8.10;26.10
10276;DHT22;5183;51.190;6.820;2023-02-12T08:29:22;8.20;15.60
10276;DHT22;5183;51.190;6.820;2023-02-12T08:31:49;8.20;19.20
10276;DHT22;5183;51.190;6.820;2023-02-12T08:34:21;8.30;1.00
10276;DHT22;5183;51.190;6.820;2023-02-12T08:36:50;8.40;1.00
10276;DHT22;5183;51.190;6.820;2023-02-12T08:39:20;8.40;1.00
10276;DHT22;5183;51.190;6.820;2023-02-12T08:41:47;8.50;1.00
10276;DHT22;5183;51.190;6.820;2023-02-12T08:44:15;8.60;1.00
10276;DHT22;5183;51.190;6.820;2023-02-12T08:46:43;8.60;1.00
10276;DHT22;5183;51.190;6.820;2023-02-12T08:49:13;8.70;1.00
10276;DHT22;5183;51.190;6.820;2023-02-12T08:51:41;8.80;1.00
10276;DHT22;5183;51.190;6.820;2023-02-12T08:54:11;8.80;1.00
10276;DHT22;5183;51.190;6.820;2023-02-12T08:56:40;8.80;1.00
10276;DHT22;5183;51.190;6.820;2023-02-12T08:59:10;8.90;1.00
10276;DHT22;5183;51.190;6.820;2023-02-12T09:01:38;9.00;1.00
10276;DHT22;5183;51.190;6.820;2023-02-12T09:04:07;9.00;1.00
10276;DHT22;5183;51.190;6.820;2023-02-12T09:06:35;9.10;1.00
10276;DHT22;5183;51.190;6.820;2023-02-12T09:09:02;9.20;1.00
10276;DHT22;5183;51.190;6.820;2023-02-12T09:11:29;9.20;1.00
10276;DHT22;5183;51.190;6.820;2023-02-12T09:14:01;9.20;99.90
10276;DHT22;5183;51.190;6.820;2023-02-12T09:16:31;9.30;99.90
10276;DHT22;5183;51.190;6.820;2023-02-12T09:18:58;9.40;99.90
10276;DHT22;5183;51.190;6.820;2023-02-12T09:21:25;9.50;99.90
10276;DHT22;5183;51.190;6.820;2023-02-12T09:23:52;9.50;1.00
10276;DHT22;5183;51.190;6.820;2023-02-12T09:26:21;9.60;1.00
10276;DHT22;5183;51.190;6.820;2023-02-12T09:28:50;9.60;1.00
10276;DHT22;5183;51.190;6.820;2023-02-12T09:31:22;9.70;99.90
10276;DHT22;5183;51.190;6.820;2023-02-12T09:33:51;9.70;99.90
10276;DHT22;5183;51.190;6.820;2023-02-12T09:36:18;9.80;99.90
10276;DHT22;5183;51.190;6.820;2023-02-12T09:38:45;9.80;99.90
10276;DHT22;5183;51.190;6.820;2023-02-12T09:41:28;9.90;99.90
10276;DHT22;5183;51.190;6.820;2023-02-12T09:44:04;9.90;1.00
10276;DHT22;5183;51.190;6.820;2023-02-12T09:46:37;10.00;1.00
10276;DHT22;5183;51.190;6.820;2023-02-12T09:49:08;10.10;1.00
10276;DHT22;5183;51.190;6.820;2023-02-12T09:51:37;10.10;99.90
10276;DHT22;5183;51.190;6.820;2023-02-12T09:54:08;10.20;2.40
10276;DHT22;5183;51.190;6.820;2023-02-12T09:56:37;10.20;1.00
10276;DHT22;5183;51.190;6.820;2023-02-12T09:59:06;10.30;99.90
10276;DHT22;5183;51.190;6.820;2023-02-12T10:01:35;10.30;1.00
10276;DHT22;5183;51.190;6.820;2023-02-12T10:04:04;10.40;99.90
10276;DHT22;5183;51.190;6.820;2023-02-12T10:06:34;10.40;1.00
10276;DHT22;5183;51.190;6.820;2023-02-12T10:09:18;10.50;1.00
10276;DHT22;5183;51.190;6.820;2023-02-12T10:11:53;10.60;1.00
10276;DHT22;5183;51.190;6.820;2023-02-12T10:14:46;10.60;1.00
10276;DHT22;5183;51.190;6.820;2023-02-12T10:17:26;10.60;1.00
10276;DHT22;5183;51.190;6.820;2023-02-12T10:20:30;10.70;99.90
10276;DHT22;5183;51.190;6.820;2023-02-12T10:23:07;10.70;99.90
10276;DHT22;5183;51.190;6.820;2023-02-12T10:25:44;10.70;1.00
10276;DHT22;5183;51.190;6.820;2023-02-12T10:28:16;10.80;1.00
10276;DHT22;5183;51.190;6.820;2023-02-12T10:30:48;10.90;99.90
10276;DHT22;5183;51.190;6.820;2023-02-12T10:33:20;11.00;1.00
10276;DHT22;5183;51.190;6.820;2023-02-12T10:35:52;11.00;1.00
10276;DHT22;5183;51.190;6.820;2023-02-12T10:38:22;11.00;99.90
10276;DHT22;5183;51.190;6.820;2023-02-12T10:40:52;11.10;99.90
10276;DHT22;5183;51.190;6.820;2023-02-12T10:43:23;11.20;1.00
10276;DHT22;5183;51.190;6.820;2023-02-12T10:45:50;11.30;1.00
10276;DHT22;5183;51.190;6.820;2023-02-12T10:48:21;11.40;1.00
10276;DHT22;5183;51.190;6.820;2023-02-12T10:50:54;11.30;1.00
10276;DHT22;5183;51.190;6.820;2023-02-12T10:53:28;11.20;1.00
10276;DHT22;5183;51.190;6.820;2023-02-12T10:56:13;11.20;48.20
10276;DHT22;5183;51.190;6.820;2023-02-12T10:58:49;11.20;1.00
10276;DHT22;5183;51.190;6.820;2023-02-12T11:01:19;11.30;1.00
10276;DHT22;5183;51.190;6.820;2023-02-12T11:03:48;11.40;1.00
10276;DHT22;5183;51.190;6.820;2023-02-12T11:06:18;11.40;99.90
10276;DHT22;5183;51.190;6.820;2023-02-12T11:08:45;11.40;99.90
10276;DHT22;5183;51.190;6.820;2023-02-12T11:11:15;11.50;99.90
10276;DHT22;5183;51.190;6.820;2023-02-12T11:13:44;11.50;32.90
10276;DHT22;5183;51.190;6.820;2023-02-12T11:16:13;11.60;99.90
10276;DHT22;5183;51.190;6.820;2023-02-12T11:18:42;11.60;99.90
10276;DHT22;5183;51.190;6.820;2023-02-12T11:21:11;11.70;99.90
10276;DHT22;5183;51.190;6.820;2023-02-12T11:23:40;11.90;1.00
10276;DHT22;5183;51.190;6.820;2023-02-12T11:26:23;12.00;99.90
10276;DHT22;5183;51.190;6.820;2023-02-12T11:28:53;11.80;1.00
10276;DHT22;5183;51.190;6.820;2023-02-12T11:31:21;11.70;1.00
10276;DHT22;5183;51.190;6.820;2023-02-12T11:34:06;11.80;1.00
10276;DHT22;5183;51.190;6.820;2023-02-12T11:36:36;11.60;1.00
10276;DHT22;5183;51.190;6.820;2023-02-12T11:39:04;11.80;1.00
10276;DHT22;5183;51.190;6.820;2023-02-12T11:41:35;11.70;1.00
10276;DHT22;5183;51.190;6.820;2023-02-12T11:44:09;11.80;1.00
10276;DHT22;5183;51.190;6.820;2023-02-12T11:46:38;11.90;99.90
10276;DHT22;5183;51.190;6.820;2023-02-12T11:49:06;11.90;99.90
10276;DHT22;5183;51.190;6.820;2023-02-12T11:51:36;11.80;99.90
10276;DHT22;5183;51.190;6.820;2023-02-12T11:54:04;11.90;99.90
10276;DHT22;5183;51.190;6.820;2023-02-12T11:56:40;11.90;99.90
10276;DHT22;5183;51.190;6.820;2023-02-12T11:59:27;11.90;99.90
10276;DHT22;5183;51.190;6.820;2023-02-12T12:01:56;12.00;99.90
10276;DHT22;5183;51.190;6.820;2023-02-12T12:04:27;12.10;99.90
10276;DHT22;5183;51.190;6.820;2023-02-12T12:07:00;12.10;99.90
10276;DHT22;5183;51.190;6.820;2023-02-12T12:09:33;12.20;99.90
10276;DHT22;5183;51.190;6.820;2023-02-12T12:12:09;12.20;99.90
10276;DHT22;5183;51.190;6.820;2023-02-12T12:14:42;12.30;21.60
10276;DHT22;5183;51.190;6.820;2023-02-12T12:17:37;12.20;86.30
10276;DHT22;5183;51.190;6.820;2023-02-12T12:20:27;12.10;99.90
10276;DHT22;5183;51.190;6.820;2023-02-12T12:23:01;12.20;90.10
10276;DHT22;5183;51.190;6.820;2023-02-12T12:25:33;12.20;99.90
10276;DHT22;5183;51.190;6.820;2023-02-12T12:28:08;12.30;95.80
10276;DHT22;5183;51.190;6.820;2023-02-12T12:30:44;12.10;1.00
10276;DHT22;5183;51.190;6.820;2023-02-12T12:33:18;12.10;34.60
10276;DHT22;5183;51.190;6.820;2023-02-12T12:35:53;12.10;69.30
10276;DHT22;5183;51.190;6.820;2023-02-12T12:38:33;12.20;59.20
10276;DHT22;5183;51.190;6.820;2023-02-12T12:41:10;12.30;99.90
10276;DHT22;5183;51.190;6.820;2023-02-12T12:43:48;12.20;99.90
10276;DHT22;5183;51.190;6.820;2023-02-12T12:46:36;12.20;99.90
10276;DHT22;5183;51.190;6.820;2023-02-12T12:49:36;12.20;1.00
10276;DHT22;5183;51.190;6.820;2023-02-12T12:55:33;12.30;99.90
10276;DHT22;5183;51.190;6.820;2023-02-12T12:58:14;12.30;99.90
10276;DHT22;5183;51.190;6.820;2023-02-12T13:01:00;12.30;29.00
10276;DHT22;5183;51.190;6.820;2023-02-12T13:06:54;12.30;68.20
10276;DHT22;5183;51.190;6.820;2023-02-12T13:09:32;12.30;48.60
10276;DHT22;5183;51.190;6.820;2023-02-12T13:12:37;12.40;1.00
10276;DHT22;5183;51.190;6.820;2023-02-12T13:15:18;12.40;1.00
10276;DHT22;5183;51.190;6.820;2023-02-12T13:17:50;12.30;1.00
10276;DHT22;5183;51.190;6.820;2023-02-12T13:20:25;12.20;1.00
10276;DHT22;5183;51.190;6.820;2023-02-12T13:22:58;12.20;15.30
10276;DHT22;5183;51.190;6.820;2023-02-12T13:25:31;12.30;34.60
10276;DHT22;5183;51.190;6.820;2023-02-12T13:28:08;12.30;99.90
10276;DHT22;5183;51.190;6.820;2023-02-12T13:30:42;12.30;1.00
10276;DHT22;5183;51.190;6.820;2023-02-12T13:33:13;12.30;1.00
10276;DHT22;5183;51.190;6.820;2023-02-12T13:35:45;12.30;42.70
10276;DHT22;5183;51.190;6.820;2023-02-12T13:38:17;12.20;99.90
10276;DHT22;5183;51.190;6.820;2023-02-12T13:40:46;12.20;99.90
10276;DHT22;5183;51.190;6.820;2023-02-12T13:46:13;12.30;1.00
10276;DHT22;5183;51.190;6.820;2023-02-12T13:48:49;12.30;48.60
10276;DHT22;5183;51.190;6.820;2023-02-12T13:51:28;12.10;1.00
10276;DHT22;5183;51.190;6.820;2023-02-12T13:54:05;12.20;99.90
10276;DHT22;5183;51.190;6.820;2023-02-12T13:56:40;12.20;89.30
10276;DHT22;5183;51.190;6.820;2023-02-12T14:02:45;12.10;99.90
10276;DHT22;5183;51.190;6.820;2023-02-12T14:05:22;12.10;99.90
10276;DHT22;5183;51.190;6.820;2023-02-12T14:07:50;12.20;99.90
10276;DHT22;5183;51.190;6.820;2023-02-12T14:10:20;12.10;99.90
10276;DHT22;5183;51.190;6.820;2023-02-12T14:12:48;12.10;99.90
10276;DHT22;5183;51.190;6.820;2023-02-12T14:15:31;12.00;99.90
10276;DHT22;5183;51.190;6.820;2023-02-12T14:18:29;11.90;1.00
10276;DHT22;5183;51.190;6.820;2023-02-12T14:24:48;12.00;99.90
10276;DHT22;5183;51.190;6.820;2023-02-12T14:27:36;12.00;99.90
10276;DHT22;5183;51.190;6.820;2023-02-12T14:30:32;11.90;1.00
10276;DHT22;5183;51.190;6.820;2023-02-12T14:33:15;11.90;1.00
10276;DHT22;5183;51.190;6.820;2023-02-12T14:35:46;11.90;1.00
10276;DHT22;5183;51.190;6.820;2023-02-12T14:41:26;12.00;1.00
10276;DHT22;5183;51.190;6.820;2023-02-12T14:44:47;11.90;1.00
10276;DHT22;5183;51.190;6.820;2023-02-12T14:47:50;11.90;1.00
10276;DHT22;5183;51.190;6.820;2023-02-12T14:50:37;11.70;1.00
10276;DHT22;5183;51.190;6.820;2023-02-12T14:53:26;11.80;1.00
10276;DHT22;5183;51.190;6.820;2023-02-12T14:55:55;11.60;98.80
10276;DHT22;5183;51.190;6.820;2023-02-12T14:58:23;11.50;99.90
10276;DHT22;5183;51.190;6.820;2023-02-12T15:00:53;11.50;99.90
10276;DHT22;5183;51.190;6.820;2023-02-12T15:03:25;11.40;99.90
10276;DHT22;5183;51.190;6.820;2023-02-12T15:06:03;11.50;99.90
10276;DHT22;5183;51.190;6.820;2023-02-12T15:08:40;11.50;99.90
10276;DHT22;5183;51.190;6.820;2023-02-12T15:11:18;11.50;1.00
10276;DHT22;5183;51.190;6.820;2023-02-12T15:13:48;11.30;1.00
10276;DHT22;5183;51.190;6.820;2023-02-12T15:16:23;11.30;1.00
10276;DHT22;5183;51.190;6.820;2023-02-12T15:18:57;11.30;1.00
10276;DHT22;5183;51.190;6.820;2023-02-12T15:21:27;11.40;1.00
10276;DHT22;5183;51.190;6.820;2023-02-12T15:24:07;11.30;1.00
10276;DHT22;5183;51.190;6.820;2023-02-12T15:26:38;11.30;1.00
10276;DHT22;5183;51.190;6.820;2023-02-12T15:29:18;11.20;1.00
10276;DHT22;5183;51.190;6.820;2023-02-12T15:31:50;11.30;1.00
10276;DHT22;5183;51.190;6.820;2023-02-12T15:34:20;11.20;1.00
10276;DHT22;5183;51.190;6.820;2023-02-12T15:36:48;11.20;1.00
10276;DHT22;5183;51.190;6.820;2023-02-12T15:39:18;11.10;1.00
10276;DHT22;5183;51.190;6.820;2023-02-12T15:41:46;11.20;1.00
10276;DHT22;5183;51.190;6.820;2023-02-12T15:44:20;11.10;55.90
10276;DHT22;5183;51.190;6.820;2023-02-12T15:46:55;11.20;1.00
10276;DHT22;5183;51.190;6.820;2023-02-12T15:49:27;11.20;1.00
10276;DHT22;5183;51.190;6.820;2023-02-12T15:51:54;11.20;1.00
10276;DHT22;5183;51.190;6.820;2023-02-12T15:54:23;11.20;1.00
10276;DHT22;5183;51.190;6.820;2023-02-12T15:56:50;11.10;38.70
10276;DHT22;5183;51.190;6.820;2023-02-12T15:59:20;11.00;93.40
10276;DHT22;5183;51.190;6.820;2023-02-12T16:01:56;11.00;99.90
10276;DHT22;5183;51.190;6.820;2023-02-12T16:04:26;11.00;87.90
10276;DHT22;5183;51.190;6.820;2023-02-12T16:06:54;11.00;99.90
10276;DHT22;5183;51.190;6.820;2023-02-12T16:09:27;11.00;99.90
10276;DHT22;5183;51.190;6.820;2023-02-12T16:11:56;10.90;99.90
10276;DHT22;5183;51.190;6.820;2023-02-12T16:14:26;10.90;1.00
10276;DHT22;5183;51.190;6.820;2023-02-12T16:16:57;10.90;1.00
10276;DHT22;5183;51.190;6.820;2023-02-12T16:19:26;10.80;1.00
10276;DHT22;5183;51.190;6.820;2023-02-12T16:21:55;10.80;1.00
10276;DHT22;5183;51.190;6.820;2023-02-12T16:24:29;10.80;99.90
10276;DHT22;5183;51.190;6.820;2023-02-12T16:27:01;10.70;10.20
10276;DHT22;5183;51.190;6.820;2023-02-12T16:29:30;10.70;94.10
10276;DHT22;5183;51.190;6.820;2023-02-12T16:31:59;10.70;99.90
10276;DHT22;5183;51.190;6.820;2023-02-12T16:34:30;10.60;99.90
10276;DHT22;5183;51.190;6.820;2023-02-12T16:36:57;10.60;99.90
10276;DHT22;5183;51.190;6.820;2023-02-12T16:42:26;10.60;99.90
10276;DHT22;5183;51.190;6.820;2023-02-12T16:44:54;10.50;1.00
10276;DHT22;5183;51.190;6.820;2023-02-12T16:47:22;10.50;1.00
10276;DHT22;5183;51.190;6.820;2023-02-12T16:49:54;10.50;1.00
10276;DHT22;5183;51.190;6.820;2023-02-12T16:52:34;10.50;1.00
10276;DHT22;5183;51.190;6.820;2023-02-12T16:55:02;10.40;1.00
10276;DHT22;5183;51.190;6.820;2023-02-12T16:57:31;10.40;1.00